sensor_id;sensor_type;location;lat;lon;timestamp;pressure;altitude;pressure_sealevel;temperature;humidity
7309;BME280;3695;53.330;9.876;2023-04-21T00:00:51;102877.06;;;7.45;100.00
7309;BME280;3695;53.330;9.876;2023-04-21T00:03:18;102884.63;;;7.42;100.00
7309;BME280;3695;53.330;9.876;2023-04-21T00:05:48;102874.00;;;7.31;100.00
7309;BME280;3695;53.330;9.876;2023-04-21T00:08:15;102873.28;;;7.29;100.00
7309;BME280;3695;53.330;9.876;2023-04-21T00:10:42;102912.03;;;7.37;100.00
7309;BME280;3695;53.330;9.876;2023-04-21T00:13:10;102888.75;;;7.36;100.00
7309;BME280;3695;53.330;9.876;2023-04-21T00:15:36;102858.53;;;7.33;100.00
7309;BME280;3695;53.330;9.876;2023-04-21T00:18:03;102860.66;;;7.29;100.00
7309;BME280;3695;53.330;9.876;2023-04-21T00:20:30;102896.69;;;7.38;100.00
7309;BME280;3695;53.330;9.876;2023-04-21T00:22:58;102885.34;;;7.34;100.00
7309;BME280;3695;53.330;9.876;2023-04-21T00:25:24;102829.19;;;7.10;100.00
7309;BME280;3695;53.330;9.876;2023-04-21T00:27:51;102829.75;;;7.14;100.00
7309;BME280;3695;53.330;9.876;2023-04-21T00:30:19;102856.16;;;7.20;100.00
7309;BME280;3695;53.330;9.876;2023-04-21T00:32:45;102868.63;;;7.21;100.00
7309;BME280;3695;53.330;9.876;2023-04-21T00:35:12;102876.91;;;7.10;100.00
7309;BME280;3695;53.330;9.876;2023-04-21T00:37:38;102880.84;;;7.06;100.00
7309;BME280;3695;53.330;9.876;2023-04-21T00:40:06;102924.28;;;7.12;100.00
7309;BME280;3695;53.330;9.876;2023-04-21T00:42:33;102873.19;;;7.01;100.00
7309;BME280;3695;53.330;9.876;2023-04-21T00:45:00;102796.00;;;7.00;100.00
7309;BME280;3695;53.330;9.876;2023-04-21T00:47:28;102857.28;;;7.08;100.00
7309;BME280;3695;53.330;9.876;2023-04-21T00:49:55;102819.97;;;7.03;100.00
7309;BME280;3695;53.330;9.876;2023-04-21T00:52:22;102876.91;;;6.90;100.00
7309;BME280;3695;53.330;9.876;2023-04-21T00:54:49;102939.47;;;7.13;100.00
7309;BME280;3695;53.330;9.876;2023-04-21T00:57:15;102819.00;;;6.85;100.00
7309;BME280;3695;53.330;9.876;2023-04-21T00:59:42;102913.91;;;7.08;100.00
7309;BME280;3695;53.330;9.876;2023-04-21T01:02:09;102852.47;;;7.02;100.00
7309;BME280;3695;53.330;9.876;2023-04-21T01:04:37;102857.28;;;6.98;100.00
7309;BME280;3695;53.330;9.876;2023-04-21T01:07:05;102919.88;;;7.02;100.00
7309;BME280;3695;53.330;9.876;2023-04-21T01:09:32;102839.84;;;6.92;100.00
7309;BME280;3695;53.330;9.876;2023-04-21T01:11:59;102924.56;;;7.00;100.00
7309;BME280;3695;53.330;9.876;2023-04-21T01:14:27;102865.53;;;6.97;100.00
7309;BME280;3695;53.330;9.876;2023-04-21T01:16:54;102887.81;;;6.99;100.00
7309;BME280;3695;53.330;9.876;2023-04-21T01:19:21;102847.66;;;6.95;100.00
7309;BME280;3695;53.330;9.876;2023-04-21T01:21:48;102899.00;;;7.04;100.00
7309;BME280;3695;53.330;9.876;2023-04-21T01:24:15;102836.00;;;7.05;100.00
7309;BME280;3695;53.330;9.876;2023-04-21T01:26:42;102845.09;;;7.04;100.00
7309;BME280;3695;53.330;9.876;2023-04-21T01:29:10;102843.69;;;7.00;100.00
7309;BME280;3695;53.330;9.876;2023-04-21T01:31:36;102831.59;;;7.04;100.00
7309;BME280;3695;53.330;9.876;2023-04-21T01:34:03;102872.47;;;6.99;100.00
7309;BME280;3695;53.330;9.876;2023-04-21T01:36:29;102859.84;;;7.00;100.00
7309;BME280;3695;53.330;9.876;2023-04-21T01:38:58;102769.34;;;6.87;100.00
7309;BME280;3695;53.330;9.876;2023-04-21T01:41:24;102904.69;;;7.01;100.00
7309;BME280;3695;53.330;9.876;2023-04-21T01:43:51;102853.59;;;6.99;100.00
7309;BME280;3695;53.330;9.876;2023-04-21T01:46:18;102887.81;;;6.99;100.00
7309;BME280;3695;53.330;9.876;2023-04-21T01:48:44;102794.06;;;6.83;100.00
7309;BME280;3695;53.330;9.876;2023-04-21T01:51:11;102870.06;;;6.96;100.00
7309;BME280;3695;53.330;9.876;2023-04-21T01:53:38;102823.56;;;6.84;100.00
7309;BME280;3695;53.330;9.876;2023-04-21T01:56:06;102866.97;;;6.81;100.00
7309;BME280;3695;53.330;9.876;2023-04-21T01:58:32;102839.75;;;6.75;100.00
7309;BME280;3695;53.330;9.876;2023-04-21T02:00:59;102833.09;;;6.69;100.00
7309;BME280;3695;53.330;9.876;2023-04-21T02:03:26;102835.34;;;6.74;100.00
7309;BME280;3695;53.330;9.876;2023-04-21T02:05:52;102890.09;;;6.74;100.00
7309;BME280;3695;53.330;9.876;2023-04-21T02:08:18;102906.41;;;6.82;100.00
7309;BME280;3695;53.330;9.876;2023-04-21T02:10:45;102917.03;;;6.84;100.00
7309;BME280;3695;53.330;9.876;2023-04-21T02:13:13;102876.75;;;6.82;100.00
7309;BME280;3695;53.330;9.876;2023-04-21T02:15:39;102875.19;;;6.89;100.00
7309;BME280;3695;53.330;9.876;2023-04-21T02:18:06;102811.38;;;6.80;100.00
7309;BME280;3695;53.330;9.876;2023-04-21T02:20:33;102830.09;;;6.72;100.00
7309;BME280;3695;53.330;9.876;2023-04-21T02:22:59;102817.34;;;6.74;100.00
7309;BME280;3695;53.330;9.876;2023-04-21T02:25:26;102824.44;;;6.66;100.00
7309;BME280;3695;53.330;9.876;2023-04-21T02:27:53;102828.97;;;6.65;100.00
7309;BME280;3695;53.330;9.876;2023-04-21T02:30:21;102867.13;;;6.70;100.00
7309;BME280;3695;53.330;9.876;2023-04-21T02:32:48;102844.84;;;6.68;100.00
7309;BME280;3695;53.330;9.876;2023-04-21T02:35:14;102870.34;;;6.54;100.00
7309;BME280;3695;53.330;9.876;2023-04-21T02:37:40;102807.41;;;6.55;100.00
7309;BME280;3695;53.330;9.876;2023-04-21T02:40:08;102905.84;;;6.69;100.00
7309;BME280;3695;53.330;9.876;2023-04-21T02:42:35;102858.88;;;6.62;100.00
7309;BME280;3695;53.330;9.876;2023-04-21T02:45:01;102890.53;;;6.70;100.00
7309;BME280;3695;53.330;9.876;2023-04-21T02:47:29;102924.00;;;6.67;100.00
7309;BME280;3695;53.330;9.876;2023-04-21T02:49:55;102928.53;;;6.67;100.00
7309;BME280;3695;53.330;9.876;2023-04-21T02:52:22;102805.69;;;6.45;100.00
7309;BME280;3695;53.330;9.876;2023-04-21T02:54:48;102941.97;;;6.57;100.00
7309;BME280;3695;53.330;9.876;2023-04-21T02:57:15;102918.72;;;6.56;100.00
7309;BME280;3695;53.330;9.876;2023-04-21T02:59:41;102900.41;;;6.59;100.00
7309;BME280;3695;53.330;9.876;2023-04-21T03:02:08;102899.00;;;6.55;100.00
7309;BME280;3695;53.330;9.876;2023-04-21T03:04:35;102905.25;;;6.56;100.00
7309;BME280;3695;53.330;9.876;2023-04-21T03:07:02;102851.50;;;6.54;100.00
7309;BME280;3695;53.330;9.876;2023-04-21T03:09:28;102893.31;;;6.49;100.00
7309;BME280;3695;53.330;9.876;2023-04-21T03:11:55;102871.34;;;6.44;100.00
7309;BME280;3695;53.330;9.876;2023-04-21T03:14:21;102901.25;;;6.41;100.00
7309;BME280;3695;53.330;9.876;2023-04-21T03:16:48;102943.94;;;6.55;100.00
7309;BME280;3695;53.330;9.876;2023-04-21T03:19:14;102890.75;;;6.38;100.00
7309;BME280;3695;53.330;9.876;2023-04-21T03:21:42;102914.44;;;6.44;100.00
7309;BME280;3695;53.330;9.876;2023-04-21T03:24:08;102907.50;;;6.41;100.00
7309;BME280;3695;53.330;9.876;2023-04-21T03:26:37;102945.50;;;6.48;100.00
7309;BME280;3695;53.330;9.876;2023-04-21T03:29:04;102860.41;;;6.36;100.00
7309;BME280;3695;53.330;9.876;2023-04-21T03:31:30;102859.84;;;6.42;100.00
7309;BME280;3695;53.330;9.876;2023-04-21T03:33:57;102907.06;;;6.46;100.00
7309;BME280;3695;53.330;9.876;2023-04-21T03:36:23;102870.91;;;6.39;100.00
7309;BME280;3695;53.330;9.876;2023-04-21T03:38:51;102971.59;;;6.47;100.00
7309;BME280;3695;53.330;9.876;2023-04-21T03:41:17;102885.94;;;6.31;100.00
7309;BME280;3695;53.330;9.876;2023-04-21T03:43:44;102960.50;;;6.41;100.00
7309;BME280;3695;53.330;9.876;2023-04-21T03:46:17;102902.53;;;6.37;100.00
7309;BME280;3695;53.330;9.876;2023-04-21T03:48:44;102892.47;;;6.39;100.00
7309;BME280;3695;53.330;9.876;2023-04-21T03:51:10;102944.78;;;6.46;100.00
7309;BME280;3695;53.330;9.876;2023-04-21T03:53:37;102948.88;;;6.40;100.00
7309;BME280;3695;53.330;9.876;2023-04-21T03:56:05;102854.19;;;6.25;100.00
7309;BME280;3695;53.330;9.876;2023-04-21T03:58:32;102920.38;;;6.38;100.00
7309;BME280;3695;53.330;9.876;2023-04-21T04:00:58;102914.56;;;6.32;100.00
7309;BME280;3695;53.330;9.876;2023-04-21T04:03:25;102865.38;;;6.30;100.00
7309;BME280;3695;53.330;9.876;2023-04-21T04:05:51;102939.94;;;6.40;100.00
7309;BME280;3695;53.330;9.876;2023-04-21T04:08:18;102914.28;;;6.26;100.00
7309;BME280;3695;53.330;9.876;2023-04-21T04:10:45;102973.81;;;6.32;100.00
7309;BME280;3695;53.330;9.876;2023-04-21T04:13:12;102971.13;;;6.32;100.00
7309;BME280;3695;53.330;9.876;2023-04-21T04:15:39;102994.53;;;6.42;100.00
7309;BME280;3695;53.330;9.876;2023-04-21T04:18:05;102913.03;;;6.40;100.00
7309;BME280;3695;53.330;9.876;2023-04-21T04:20:32;102968.31;;;6.44;100.00
7309;BME280;3695;53.330;9.876;2023-04-21T04:22:58;102862.13;;;6.37;100.00
7309;BME280;3695;53.330;9.876;2023-04-21T04:25:25;102869.22;;;6.47;100.00
7309;BME280;3695;53.330;9.876;2023-04-21T04:27:51;102898.16;;;6.55;100.00
7309;BME280;3695;53.330;9.876;2023-04-21T04:30:19;102846.81;;;6.47;100.00
7309;BME280;3695;53.330;9.876;2023-04-21T04:32:46;102863.81;;;6.38;100.00
7309;BME280;3695;53.330;9.876;2023-04-21T04:35:12;102878.28;;;6.37;100.00
7309;BME280;3695;53.330;9.876;2023-04-21T04:37:39;102970.47;;;6.59;100.00
7309;BME280;3695;53.330;9.876;2023-04-21T04:40:07;102883.41;;;6.49;100.00
7309;BME280;3695;53.330;9.876;2023-04-21T04:42:36;102902.41;;;6.48;100.00
7309;BME280;3695;53.330;9.876;2023-04-21T04:45:04;102896.72;;;6.51;100.00
7309;BME280;3695;53.330;9.876;2023-04-21T04:47:34;102871.50;;;6.52;100.00
7309;BME280;3695;53.330;9.876;2023-04-21T04:50:00;102833.34;;;6.47;100.00
7309;BME280;3695;53.330;9.876;2023-04-21T04:52:27;102952.09;;;6.74;100.00
7309;BME280;3695;53.330;9.876;2023-04-21T04:54:53;102850.53;;;6.65;100.00
7309;BME280;3695;53.330;9.876;2023-04-21T04:57:19;102864.72;;;6.77;100.00
7309;BME280;3695;53.330;9.876;2023-04-21T04:59:46;102824.72;;;6.72;100.00
7309;BME280;3695;53.330;9.876;2023-04-21T05:02:12;102838.47;;;6.69;100.00
7309;BME280;3695;53.330;9.876;2023-04-21T05:04:41;102877.63;;;6.73;100.00
7309;BME280;3695;53.330;9.876;2023-04-21T05:07:07;102758.47;;;6.70;100.00
7309;BME280;3695;53.330;9.876;2023-04-21T05:09:33;102893.06;;;6.90;100.00
7309;BME280;3695;53.330;9.876;2023-04-21T05:12:00;102846.22;;;7.11;100.00
7309;BME280;3695;53.330;9.876;2023-04-21T05:14:26;102830.91;;;7.11;100.00
7309;BME280;3695;53.330;9.876;2023-04-21T05:16:53;102771.59;;;7.02;100.00
7309;BME280;3695;53.330;9.876;2023-04-21T05:19:19;102785.72;;;7.23;100.00
7309;BME280;3695;53.330;9.876;2023-04-21T05:21:47;102760.75;;;7.21;100.00
7309;BME280;3695;53.330;9.876;2023-04-21T05:24:13;102703.31;;;7.11;100.00
7309;BME280;3695;53.330;9.876;2023-04-21T05:26:40;102757.31;;;7.29;100.00
7309;BME280;3695;53.330;9.876;2023-04-21T05:29:06;102817.00;;;7.43;100.00
7309;BME280;3695;53.330;9.876;2023-04-21T05:31:33;102792.72;;;7.43;100.00
7309;BME280;3695;53.330;9.876;2023-04-21T05:33:59;102718.19;;;7.42;100.00
7309;BME280;3695;53.330;9.876;2023-04-21T05:36:26;102766.25;;;7.56;100.00
7309;BME280;3695;53.330;9.876;2023-04-21T05:38:55;102727.91;;;7.63;100.00
7309;BME280;3695;53.330;9.876;2023-04-21T05:41:22;102741.94;;;7.66;100.00
7309;BME280;3695;53.330;9.876;2023-04-21T05:43:48;102702.47;;;7.83;100.00
7309;BME280;3695;53.330;9.876;2023-04-21T05:46:15;102728.31;;;7.85;100.00
7309;BME280;3695;53.330;9.876;2023-04-21T05:48:41;102723.38;;;7.99;100.00
7309;BME280;3695;53.330;9.876;2023-04-21T05:51:08;102644.59;;;8.03;100.00
7309;BME280;3695;53.330;9.876;2023-04-21T05:53:35;102676.84;;;8.23;100.00
7309;BME280;3695;53.330;9.876;2023-04-21T05:56:04;102645.06;;;8.16;100.00
7309;BME280;3695;53.330;9.876;2023-04-21T05:58:32;102618.38;;;8.13;100.00
7309;BME280;3695;53.330;9.876;2023-04-21T06:00:58;102663.66;;;8.19;100.00
7309;BME280;3695;53.330;9.876;2023-04-21T06:03:25;102503.44;;;8.19;100.00
7309;BME280;3695;53.330;9.876;2023-04-21T06:05:53;102633.75;;;8.39;100.00
7309;BME280;3695;53.330;9.876;2023-04-21T06:08:19;102524.84;;;8.38;100.00
7309;BME280;3695;53.330;9.876;2023-04-21T06:10:46;102619.88;;;8.34;100.00
7309;BME280;3695;53.330;9.876;2023-04-21T06:13:14;102587.53;;;8.50;100.00
7309;BME280;3695;53.330;9.876;2023-04-21T06:15:41;102676.84;;;8.66;100.00
7309;BME280;3695;53.330;9.876;2023-04-21T06:18:07;102517.41;;;8.74;100.00
7309;BME280;3695;53.330;9.876;2023-04-21T06:20:34;102565.56;;;8.79;100.00
7309;BME280;3695;53.330;9.876;2023-04-21T06:23:00;102525.88;;;8.88;100.00
7309;BME280;3695;53.330;9.876;2023-04-21T06:25:26;102497.16;;;8.87;100.00
7309;BME280;3695;53.330;9.876;2023-04-21T06:27:54;102521.00;;;8.91;100.00
7309;BME280;3695;53.330;9.876;2023-04-21T06:30:22;102498.91;;;9.04;100.00
7309;BME280;3695;53.330;9.876;2023-04-21T06:32:48;102505.31;;;9.03;100.00
7309;BME280;3695;53.330;9.876;2023-04-21T06:35:15;102555.38;;;9.15;100.00
7309;BME280;3695;53.330;9.876;2023-04-21T06:37:41;102471.03;;;9.20;100.00
7309;BME280;3695;53.330;9.876;2023-04-21T06:40:08;102462.56;;;9.39;100.00
7309;BME280;3695;53.330;9.876;2023-04-21T06:42:36;102507.72;;;9.38;100.00
7309;BME280;3695;53.330;9.876;2023-04-21T06:45:03;102483.69;;;9.43;100.00
7309;BME280;3695;53.330;9.876;2023-04-21T06:47:32;102470.00;;;9.61;100.00
7309;BME280;3695;53.330;9.876;2023-04-21T06:49:59;102509.09;;;9.59;100.00
7309;BME280;3695;53.330;9.876;2023-04-21T06:52:25;102480.47;;;9.72;100.00
7309;BME280;3695;53.330;9.876;2023-04-21T06:54:51;102369.66;;;9.63;100.00
7309;BME280;3695;53.330;9.876;2023-04-21T06:57:18;102403.53;;;9.42;100.00
7309;BME280;3695;53.330;9.876;2023-04-21T06:59:45;102510.41;;;9.79;100.00
7309;BME280;3695;53.330;9.876;2023-04-21T07:02:11;102389.22;;;9.89;100.00
7309;BME280;3695;53.330;9.876;2023-04-21T07:04:39;102460.81;;;9.95;100.00
7309;BME280;3695;53.330;9.876;2023-04-21T07:07:06;102370.53;;;10.10;100.00
7309;BME280;3695;53.330;9.876;2023-04-21T07:09:32;102359.38;;;10.05;100.00
7309;BME280;3695;53.330;9.876;2023-04-21T07:11:59;102477.84;;;10.28;100.00
7309;BME280;3695;53.330;9.876;2023-04-21T07:14:26;102386.97;;;10.40;100.00
7309;BME280;3695;53.330;9.876;2023-04-21T07:16:53;102423.94;;;10.41;100.00
7309;BME280;3695;53.330;9.876;2023-04-21T07:19:21;102373.84;;;10.60;100.00
7309;BME280;3695;53.330;9.876;2023-04-21T07:21:49;102390.59;;;10.63;100.00
7309;BME280;3695;53.330;9.876;2023-04-21T07:24:15;102269.59;;;10.62;100.00
7309;BME280;3695;53.330;9.876;2023-04-21T07:26:42;102273.69;;;10.58;100.00
7309;BME280;3695;53.330;9.876;2023-04-21T07:29:08;102335.81;;;10.68;100.00
7309;BME280;3695;53.330;9.876;2023-04-21T07:31:34;102289.31;;;10.56;100.00
7309;BME280;3695;53.330;9.876;2023-04-21T07:34:01;102417.50;;;10.96;100.00
7309;BME280;3695;53.330;9.876;2023-04-21T07:36:27;102375.66;;;10.90;100.00
7309;BME280;3695;53.330;9.876;2023-04-21T07:38:56;102229.28;;;10.97;100.00
7309;BME280;3695;53.330;9.876;2023-04-21T07:41:22;102260.91;;;10.90;100.00
7309;BME280;3695;53.330;9.876;2023-04-21T07:43:49;102270.09;;;10.81;100.00
7309;BME280;3695;53.330;9.876;2023-04-21T07:46:15;102270.25;;;11.02;100.00
7309;BME280;3695;53.330;9.876;2023-04-21T07:48:42;102347.53;;;11.06;100.00
7309;BME280;3695;53.330;9.876;2023-04-21T07:51:09;102372.72;;;11.38;100.00
7309;BME280;3695;53.330;9.876;2023-04-21T07:53:36;102272.16;;;11.46;100.00
7309;BME280;3695;53.330;9.876;2023-04-21T07:56:04;102285.00;;;11.52;100.00
7309;BME280;3695;53.330;9.876;2023-04-21T07:58:31;102351.66;;;11.69;100.00
7309;BME280;3695;53.330;9.876;2023-04-21T08:00:58;102223.72;;;11.64;100.00
7309;BME280;3695;53.330;9.876;2023-04-21T08:03:24;102303.31;;;11.64;100.00
7309;BME280;3695;53.330;9.876;2023-04-21T08:05:51;102255.09;;;11.81;100.00
7309;BME280;3695;53.330;9.876;2023-04-21T08:08:17;102267.44;;;11.98;100.00
7309;BME280;3695;53.330;9.876;2023-04-21T08:10:45;102182.56;;;11.96;100.00
7309;BME280;3695;53.330;9.876;2023-04-21T08:13:13;102245.19;;;12.10;100.00
7309;BME280;3695;53.330;9.876;2023-04-21T08:15:40;102344.91;;;12.09;100.00
7309;BME280;3695;53.330;9.876;2023-04-21T08:18:07;101962.47;;;11.96;100.00
7309;BME280;3695;53.330;9.876;2023-04-21T08:20:34;102243.38;;;12.17;100.00
7309;BME280;3695;53.330;9.876;2023-04-21T08:23:00;102290.22;;;12.55;100.00
7309;BME280;3695;53.330;9.876;2023-04-21T08:25:27;102156.91;;;12.48;100.00
7309;BME280;3695;53.330;9.876;2023-04-21T08:27:53;102083.78;;;12.32;100.00
7309;BME280;3695;53.330;9.876;2023-04-21T08:30:21;102140.16;;;12.23;100.00
7309;BME280;3695;53.330;9.876;2023-04-21T08:32:47;102160.78;;;12.67;100.00
7309;BME280;3695;53.330;9.876;2023-04-21T08:35:14;102109.06;;;12.60;100.00
7309;BME280;3695;53.330;9.876;2023-04-21T08:37:40;102240.31;;;12.90;100.00
7309;BME280;3695;53.330;9.876;2023-04-21T08:40:07;102114.03;;;12.85;100.00
7309;BME280;3695;53.330;9.876;2023-04-21T08:42:34;102143.16;;;12.91;100.00
7309;BME280;3695;53.330;9.876;2023-04-21T08:45:01;102069.28;;;12.94;100.00
7309;BME280;3695;53.330;9.876;2023-04-21T08:47:31;102126.28;;;13.02;100.00
7309;BME280;3695;53.330;9.876;2023-04-21T08:49:58;102144.91;;;13.05;100.00
7309;BME280;3695;53.330;9.876;2023-04-21T08:52:24;102137.41;;;13.14;100.00
7309;BME280;3695;53.330;9.876;2023-04-21T08:54:51;102072.41;;;13.26;100.00
7309;BME280;3695;53.330;9.876;2023-04-21T08:57:19;101854.38;;;13.27;100.00
7309;BME280;3695;53.330;9.876;2023-04-21T08:59:46;101729.50;;;13.44;100.00
7309;BME280;3695;53.330;9.876;2023-04-21T09:02:13;101765.50;;;13.52;100.00
7309;BME280;3695;53.330;9.876;2023-04-21T09:04:44;101854.09;;;13.68;100.00
7309;BME280;3695;53.330;9.876;2023-04-21T09:07:11;101942.34;;;13.74;100.00
7309;BME280;3695;53.330;9.876;2023-04-21T09:09:55;101983.41;;;13.59;100.00
7309;BME280;3695;53.330;9.876;2023-04-21T09:12:22;102044.38;;;13.65;100.00
7309;BME280;3695;53.330;9.876;2023-04-21T09:14:49;102076.06;;;13.79;100.00
7309;BME280;3695;53.330;9.876;2023-04-21T09:17:16;102125.56;;;13.89;100.00
7309;BME280;3695;53.330;9.876;2023-04-21T09:19:45;102182.81;;;14.09;100.00
7309;BME280;3695;53.330;9.876;2023-04-21T09:22:13;102221.00;;;14.09;100.00
7309;BME280;3695;53.330;9.876;2023-04-21T09:24:44;102190.59;;;14.18;100.00
7309;BME280;3695;53.330;9.876;2023-04-21T09:27:11;102211.97;;;14.15;100.00
7309;BME280;3695;53.330;9.876;2023-04-21T09:29:37;102192.72;;;14.23;100.00
7309;BME280;3695;53.330;9.876;2023-04-21T09:32:04;102228.19;;;14.36;100.00
7309;BME280;3695;53.330;9.876;2023-04-21T09:34:30;102222.31;;;14.26;100.00
7309;BME280;3695;53.330;9.876;2023-04-21T09:37:00;102243.13;;;14.47;100.00
7309;BME280;3695;53.330;9.876;2023-04-21T09:39:28;102250.28;;;14.68;100.00
7309;BME280;3695;53.330;9.876;2023-04-21T09:41:54;102257.81;;;14.66;100.00
7309;BME280;3695;53.330;9.876;2023-04-21T09:44:21;102285.13;;;14.92;100.00
7309;BME280;3695;53.330;9.876;2023-04-21T09:46:49;102283.00;;;15.01;100.00
7309;BME280;3695;53.330;9.876;2023-04-21T09:49:17;102280.50;;;14.99;100.00
7309;BME280;3695;53.330;9.876;2023-04-21T09:51:44;102276.50;;;15.02;100.00
7309;BME280;3695;53.330;9.876;2023-04-21T09:54:15;102262.41;;;15.11;100.00
7309;BME280;3695;53.330;9.876;2023-04-21T09:56:43;102283.56;;;15.49;100.00
7309;BME280;3695;53.330;9.876;2023-04-21T09:59:13;102272.44;;;15.44;100.00
7309;BME280;3695;53.330;9.876;2023-04-21T10:01:43;102275.16;;;15.51;100.00
7309;BME280;3695;53.330;9.876;2023-04-21T10:04:12;102261.69;;;15.56;100.00
7309;BME280;3695;53.330;9.876;2023-04-21T10:06:38;102256.88;;;15.64;100.00
7309;BME280;3695;53.330;9.876;2023-04-21T10:09:06;102260.19;;;15.80;100.00
7309;BME280;3695;53.330;9.876;2023-04-21T10:11:35;102240.16;;;15.86;100.00
7309;BME280;3695;53.330;9.876;2023-04-21T10:14:03;102243.44;;;16.01;100.00
7309;BME280;3695;53.330;9.876;2023-04-21T10:16:29;102227.13;;;15.88;100.00
7309;BME280;3695;53.330;9.876;2023-04-21T10:18:56;102230.94;;;16.18;100.00
7309;BME280;3695;53.330;9.876;2023-04-21T10:21:22;102239.78;;;16.20;100.00
7309;BME280;3695;53.330;9.876;2023-04-21T10:23:50;102213.66;;;16.24;100.00
7309;BME280;3695;53.330;9.876;2023-04-21T10:26:20;102220.88;;;16.44;100.00
7309;BME280;3695;53.330;9.876;2023-04-21T10:28:53;102203.16;;;16.46;100.00
7309;BME280;3695;53.330;9.876;2023-04-21T10:31:28;102203.28;;;16.33;100.00
7309;BME280;3695;53.330;9.876;2023-04-21T10:34:14;102183.16;;;16.21;100.00
7309;BME280;3695;53.330;9.876;2023-04-21T10:36:42;102194.16;;;16.39;100.00
7309;BME280;3695;53.330;9.876;2023-04-21T10:39:24;102187.94;;;16.57;100.00
7309;BME280;3695;53.330;9.876;2023-04-21T10:41:54;102169.84;;;16.56;100.00
7309;BME280;3695;53.330;9.876;2023-04-21T10:44:22;102143.50;;;16.55;100.00
7309;BME280;3695;53.330;9.876;2023-04-21T10:46:50;102162.41;;;16.63;100.00
7309;BME280;3695;53.330;9.876;2023-04-21T10:49:20;102170.66;;;16.81;100.00
7309;BME280;3695;53.330;9.876;2023-04-21T10:52:07;102179.22;;;17.10;100.00
7309;BME280;3695;53.330;9.876;2023-04-21T10:54:37;102120.38;;;16.94;100.00
7309;BME280;3695;53.330;9.876;2023-04-21T10:57:08;102156.06;;;17.42;100.00
7309;BME280;3695;53.330;9.876;2023-04-21T10:59:37;102123.22;;;17.24;100.00
7309;BME280;3695;53.330;9.876;2023-04-21T11:02:04;102143.13;;;17.31;100.00
7309;BME280;3695;53.330;9.876;2023-04-21T11:04:31;102124.84;;;17.43;100.00
7309;BME280;3695;53.330;9.876;2023-04-21T11:07:05;102122.78;;;17.39;100.00
7309;BME280;3695;53.330;9.876;2023-04-21T11:09:32;102097.63;;;17.30;100.00
7309;BME280;3695;53.330;9.876;2023-04-21T11:11:59;102104.50;;;17.21;100.00
7309;BME280;3695;53.330;9.876;2023-04-21T11:14:26;102115.38;;;17.27;100.00
7309;BME280;3695;53.330;9.876;2023-04-21T11:16:54;102108.09;;;17.51;100.00
7309;BME280;3695;53.330;9.876;2023-04-21T11:19:21;102106.41;;;17.69;100.00
7309;BME280;3695;53.330;9.876;2023-04-21T11:21:49;102100.03;;;17.38;100.00
7309;BME280;3695;53.330;9.876;2023-04-21T11:24:16;102082.81;;;17.79;100.00
7309;BME280;3695;53.330;9.876;2023-04-21T11:26:42;102100.06;;;17.98;100.00
7309;BME280;3695;53.330;9.876;2023-04-21T11:29:10;102064.69;;;17.67;100.00
7309;BME280;3695;53.330;9.876;2023-04-21T11:31:37;102075.56;;;17.85;100.00
7309;BME280;3695;53.330;9.876;2023-04-21T11:34:06;102070.72;;;18.10;100.00
7309;BME280;3695;53.330;9.876;2023-04-21T11:36:32;102064.16;;;18.23;100.00
7309;BME280;3695;53.330;9.876;2023-04-21T11:39:03;102072.03;;;18.43;100.00
7309;BME280;3695;53.330;9.876;2023-04-21T11:41:32;102060.47;;;18.64;100.00
7309;BME280;3695;53.330;9.876;2023-04-21T11:44:00;102049.25;;;18.54;100.00
7309;BME280;3695;53.330;9.876;2023-04-21T11:46:27;102049.47;;;18.41;100.00
7309;BME280;3695;53.330;9.876;2023-04-21T11:48:58;102052.31;;;18.93;100.00
7309;BME280;3695;53.330;9.876;2023-04-21T11:51:31;102036.84;;;18.63;100.00
7309;BME280;3695;53.330;9.876;2023-04-21T11:53:58;102040.44;;;18.64;100.00
7309;BME280;3695;53.330;9.876;2023-04-21T11:56:25;102043.25;;;18.80;100.00
7309;BME280;3695;53.330;9.876;2023-04-21T11:58:52;102042.63;;;19.02;100.00
7309;BME280;3695;53.330;9.876;2023-04-21T12:01:19;102040.13;;;18.88;100.00
7309;BME280;3695;53.330;9.876;2023-04-21T12:03:53;102035.59;;;18.82;100.00
7309;BME280;3695;53.330;9.876;2023-04-21T12:06:21;102027.59;;;19.21;100.00
7309;BME280;3695;53.330;9.876;2023-04-21T12:08:53;102033.13;;;19.38;100.00
7309;BME280;3695;53.330;9.876;2023-04-21T12:11:20;102030.16;;;19.39;100.00
7309;BME280;3695;53.330;9.876;2023-04-21T12:13:47;102022.66;;;19.06;100.00
7309;BME280;3695;53.330;9.876;2023-04-21T12:16:14;102026.28;;;19.24;100.00
7309;BME280;3695;53.330;9.876;2023-04-21T12:18:41;102021.72;;;19.01;100.00
7309;BME280;3695;53.330;9.876;2023-04-21T12:21:08;102020.53;;;19.54;100.00
7309;BME280;3695;53.330;9.876;2023-04-21T12:23:34;102008.00;;;19.46;100.00
7309;BME280;3695;53.330;9.876;2023-04-21T12:26:04;102006.00;;;19.41;100.00
7309;BME280;3695;53.330;9.876;2023-04-21T12:28:31;102004.41;;;18.88;100.00
7309;BME280;3695;53.330;9.876;2023-04-21T12:30:57;101990.63;;;18.37;100.00
7309;BME280;3695;53.330;9.876;2023-04-21T12:33:23;101980.25;;;18.50;100.00
7309;BME280;3695;53.330;9.876;2023-04-21T12:35:50;101986.38;;;19.66;100.00
7309;BME280;3695;53.330;9.876;2023-04-21T12:38:16;101986.75;;;20.25;100.00
7309;BME280;3695;53.330;9.876;2023-04-21T12:40:43;101968.88;;;19.89;100.00
7309;BME280;3695;53.330;9.876;2023-04-21T12:43:11;101961.25;;;20.52;100.00
7309;BME280;3695;53.330;9.876;2023-04-21T12:45:37;101952.75;;;20.53;100.00
7309;BME280;3695;53.330;9.876;2023-04-21T12:48:04;101940.50;;;20.44;100.00
7309;BME280;3695;53.330;9.876;2023-04-21T12:50:30;101940.78;;;20.42;100.00
7309;BME280;3695;53.330;9.876;2023-04-21T12:52:57;101937.50;;;20.29;100.00
7309;BME280;3695;53.330;9.876;2023-04-21T12:55:24;101933.75;;;20.35;100.00
7309;BME280;3695;53.330;9.876;2023-04-21T12:57:51;101939.63;;;20.22;100.00
7309;BME280;3695;53.330;9.876;2023-04-21T13:00:19;101923.03;;;20.55;100.00
7309;BME280;3695;53.330;9.876;2023-04-21T13:02:46;101930.72;;;20.53;100.00
7309;BME280;3695;53.330;9.876;2023-04-21T13:05:12;101923.53;;;20.52;100.00